KBHM

Birmingham-Shuttlesworth International Airport

Birmingham, Alabama, USA
METAR KBHM 212053Z 01009KT 10SM CLR 17/00 A3025 RMK AO2 SLP240 T01720000 56022
Observed Flight Rules
Oct-21 @ 20:53 UTC (58 minutes ago) Visual Flight Rules
Wind Visibility Clouds
10° at 9 knots 10 miles
  • Clear skies
Temperatures Readings
Current 17°C / 63°F
Dewpoint 0°C / 32°F
Humidity 32%
Altimeter 30.25" Hg
Pressure 1024 hPa
Elevation 197
METAR KBHM 212053Z 01009KT 10SM CLR 17/00 A3025 RMK AO2 SLP240 T01720000 56022
Observed Flight Rules
Oct-21 @ 20:53 UTC
(58 minutes ago)
VFR
Wind Visibility
10° at 9 knots 10 miles
Clouds
  • Clear skies
Temperature Dewpoint
17°C / 63°F 0°C / 32°F
Humidity Altimeter Pressure
32% 30.25" Hg 1024 hPa